sensor_id;sensor_type;location;lat;lon;timestamp;temperature;humidity
8965;DHT22;4517;49.020;12.066;2022-10-18T00:00:30;10.80;99.90
8965;DHT22;4517;49.020;12.066;2022-10-18T00:02:56;10.80;99.90
8965;DHT22;4517;49.020;12.066;2022-10-18T00:05:21;10.70;99.90
8965;DHT22;4517;49.020;12.066;2022-10-18T00:07:47;10.70;99.90
8965;DHT22;4517;49.020;12.066;2022-10-18T00:10:12;10.60;99.90
8965;DHT22;4517;49.020;12.066;2022-10-18T00:12:38;10.60;99.90
8965;DHT22;4517;49.020;12.066;2022-10-18T00:15:05;10.60;99.90
8965;DHT22;4517;49.020;12.066;2022-10-18T00:17:33;10.60;99.90
8965;DHT22;4517;49.020;12.066;2022-10-18T00:20:02;10.60;99.90
8965;DHT22;4517;49.020;12.066;2022-10-18T00:22:28;10.70;99.90
8965;DHT22;4517;49.020;12.066;2022-10-18T00:24:53;10.60;99.90
8965;DHT22;4517;49.020;12.066;2022-10-18T00:27:19;10.60;99.90
8965;DHT22;4517;49.020;12.066;2022-10-18T00:29:44;10.50;99.90
8965;DHT22;4517;49.020;12.066;2022-10-18T00:32:10;10.50;99.90
8965;DHT22;4517;49.020;12.066;2022-10-18T00:34:37;10.40;99.90
8965;DHT22;4517;49.020;12.066;2022-10-18T00:37:04;10.40;99.90
8965;DHT22;4517;49.020;12.066;2022-10-18T00:39:29;10.40;99.90
8965;DHT22;4517;49.020;12.066;2022-10-18T00:41:55;10.40;99.90
8965;DHT22;4517;49.020;12.066;2022-10-18T00:46:49;10.40;99.90
8965;DHT22;4517;49.020;12.066;2022-10-18T00:49:43;10.30;99.90
8965;DHT22;4517;49.020;12.066;2022-10-18T00:52:14;10.30;99.90
8965;DHT22;4517;49.020;12.066;2022-10-18T00:54:42;10.40;99.90
8965;DHT22;4517;49.020;12.066;2022-10-18T00:57:09;10.40;99.90
8965;DHT22;4517;49.020;12.066;2022-10-18T00:59:36;10.40;99.90
8965;DHT22;4517;49.020;12.066;2022-10-18T01:02:02;10.40;99.90
8965;DHT22;4517;49.020;12.066;2022-10-18T01:04:28;10.30;99.90
8965;DHT22;4517;49.020;12.066;2022-10-18T01:07:03;10.30;99.90
8965;DHT22;4517;49.020;12.066;2022-10-18T01:15:10;10.50;99.90
8965;DHT22;4517;49.020;12.066;2022-10-18T01:18:00;10.70;99.90
8965;DHT22;4517;49.020;12.066;2022-10-18T01:26:00;10.50;99.90
8965;DHT22;4517;49.020;12.066;2022-10-18T01:28:37;10.40;99.90
8965;DHT22;4517;49.020;12.066;2022-10-18T01:31:52;10.30;99.90
8965;DHT22;4517;49.020;12.066;2022-10-18T01:34:17;10.20;99.90
8965;DHT22;4517;49.020;12.066;2022-10-18T01:36:51;10.10;99.90
8965;DHT22;4517;49.020;12.066;2022-10-18T01:39:22;10.00;99.90
8965;DHT22;4517;49.020;12.066;2022-10-18T01:41:50;10.00;99.90
8965;DHT22;4517;49.020;12.066;2022-10-18T01:44:20;10.00;99.90
8965;DHT22;4517;49.020;12.066;2022-10-18T01:46:49;10.00;99.90
8965;DHT22;4517;49.020;12.066;2022-10-18T01:49:16;10.00;99.90
8965;DHT22;4517;49.020;12.066;2022-10-18T01:51:41;10.00;99.90
8965;DHT22;4517;49.020;12.066;2022-10-18T01:54:08;10.00;99.90
8965;DHT22;4517;49.020;12.066;2022-10-18T01:56:51;10.00;99.90
8965;DHT22;4517;49.020;12.066;2022-10-18T02:04:52;10.10;99.90
8965;DHT22;4517;49.020;12.066;2022-10-18T02:07:31;10.10;99.90
8965;DHT22;4517;49.020;12.066;2022-10-18T02:10:22;10.20;99.90
8965;DHT22;4517;49.020;12.066;2022-10-18T02:12:51;10.10;99.90
8965;DHT22;4517;49.020;12.066;2022-10-18T02:15:21;10.10;99.90
8965;DHT22;4517;49.020;12.066;2022-10-18T02:17:47;10.00;99.90
8965;DHT22;4517;49.020;12.066;2022-10-18T02:20:16;10.00;99.90
8965;DHT22;4517;49.020;12.066;2022-10-18T02:22:44;10.10;99.90
8965;DHT22;4517;49.020;12.066;2022-10-18T02:25:15;10.10;99.90
8965;DHT22;4517;49.020;12.066;2022-10-18T02:27:41;10.10;99.90
8965;DHT22;4517;49.020;12.066;2022-10-18T02:30:07;10.10;99.90
8965;DHT22;4517;49.020;12.066;2022-10-18T02:32:38;10.00;99.90
8965;DHT22;4517;49.020;12.066;2022-10-18T02:35:30;9.90;99.90
8965;DHT22;4517;49.020;12.066;2022-10-18T02:37:56;9.90;99.90
8965;DHT22;4517;49.020;12.066;2022-10-18T02:40:23;9.80;99.90
8965;DHT22;4517;49.020;12.066;2022-10-18T02:42:54;9.70;99.90
8965;DHT22;4517;49.020;12.066;2022-10-18T02:45:20;9.60;99.90
8965;DHT22;4517;49.020;12.066;2022-10-18T02:47:46;9.60;99.90
8965;DHT22;4517;49.020;12.066;2022-10-18T02:50:12;9.70;99.90
8965;DHT22;4517;49.020;12.066;2022-10-18T02:52:38;9.80;99.90
8965;DHT22;4517;49.020;12.066;2022-10-18T02:55:04;9.80;99.90
8965;DHT22;4517;49.020;12.066;2022-10-18T02:57:30;10.00;99.90
8965;DHT22;4517;49.020;12.066;2022-10-18T02:59:56;10.10;99.90
8965;DHT22;4517;49.020;12.066;2022-10-18T03:02:21;10.10;99.90
8965;DHT22;4517;49.020;12.066;2022-10-18T03:04:47;10.20;99.90
8965;DHT22;4517;49.020;12.066;2022-10-18T03:07:12;10.20;99.90
8965;DHT22;4517;49.020;12.066;2022-10-18T03:09:38;10.30;99.90
8965;DHT22;4517;49.020;12.066;2022-10-18T03:12:03;10.50;99.90
8965;DHT22;4517;49.020;12.066;2022-10-18T03:14:29;10.60;99.90
8965;DHT22;4517;49.020;12.066;2022-10-18T03:16:55;10.70;99.90
8965;DHT22;4517;49.020;12.066;2022-10-18T03:19:20;10.80;99.90
8965;DHT22;4517;49.020;12.066;2022-10-18T03:21:46;10.80;99.90
8965;DHT22;4517;49.020;12.066;2022-10-18T03:24:11;10.80;99.90
8965;DHT22;4517;49.020;12.066;2022-10-18T03:26:37;10.90;99.90
8965;DHT22;4517;49.020;12.066;2022-10-18T03:29:02;10.90;99.90
8965;DHT22;4517;49.020;12.066;2022-10-18T03:31:28;10.90;99.90
8965;DHT22;4517;49.020;12.066;2022-10-18T03:33:53;11.00;99.90
8965;DHT22;4517;49.020;12.066;2022-10-18T03:36:19;10.90;99.90
8965;DHT22;4517;49.020;12.066;2022-10-18T03:38:44;11.00;99.90
8965;DHT22;4517;49.020;12.066;2022-10-18T03:41:10;11.00;99.90
8965;DHT22;4517;49.020;12.066;2022-10-18T03:43:35;10.90;99.90
8965;DHT22;4517;49.020;12.066;2022-10-18T03:46:01;10.90;99.90
8965;DHT22;4517;49.020;12.066;2022-10-18T03:48:26;10.90;99.90
8965;DHT22;4517;49.020;12.066;2022-10-18T03:50:52;11.00;99.90
8965;DHT22;4517;49.020;12.066;2022-10-18T03:53:18;11.00;99.90
8965;DHT22;4517;49.020;12.066;2022-10-18T03:55:43;11.00;99.90
8965;DHT22;4517;49.020;12.066;2022-10-18T03:58:09;11.00;99.90
8965;DHT22;4517;49.020;12.066;2022-10-18T04:00:35;11.00;99.90
8965;DHT22;4517;49.020;12.066;2022-10-18T04:03:00;11.10;99.90
8965;DHT22;4517;49.020;12.066;2022-10-18T04:05:26;11.00;99.90
8965;DHT22;4517;49.020;12.066;2022-10-18T04:07:54;11.00;99.90
8965;DHT22;4517;49.020;12.066;2022-10-18T04:10:20;11.00;99.90
8965;DHT22;4517;49.020;12.066;2022-10-18T04:12:46;11.10;99.90
8965;DHT22;4517;49.020;12.066;2022-10-18T04:15:11;11.10;99.90
8965;DHT22;4517;49.020;12.066;2022-10-18T04:17:37;11.10;99.90
8965;DHT22;4517;49.020;12.066;2022-10-18T04:20:02;11.10;99.90
8965;DHT22;4517;49.020;12.066;2022-10-18T04:22:28;11.10;99.90
8965;DHT22;4517;49.020;12.066;2022-10-18T04:24:53;11.10;99.90
8965;DHT22;4517;49.020;12.066;2022-10-18T04:27:21;11.20;99.90
8965;DHT22;4517;49.020;12.066;2022-10-18T04:29:46;11.20;99.90
8965;DHT22;4517;49.020;12.066;2022-10-18T04:32:12;11.20;99.90
8965;DHT22;4517;49.020;12.066;2022-10-18T04:34:37;11.20;99.90
8965;DHT22;4517;49.020;12.066;2022-10-18T04:37:03;11.20;99.90
8965;DHT22;4517;49.020;12.066;2022-10-18T04:39:28;11.30;99.90
8965;DHT22;4517;49.020;12.066;2022-10-18T04:41:54;11.30;99.90
8965;DHT22;4517;49.020;12.066;2022-10-18T04:44:19;11.30;99.90
8965;DHT22;4517;49.020;12.066;2022-10-18T04:46:45;11.30;99.90
8965;DHT22;4517;49.020;12.066;2022-10-18T04:49:10;11.30;99.90
8965;DHT22;4517;49.020;12.066;2022-10-18T04:51:36;11.30;99.90
8965;DHT22;4517;49.020;12.066;2022-10-18T04:54:01;11.30;99.90
8965;DHT22;4517;49.020;12.066;2022-10-18T04:56:27;11.30;99.90
8965;DHT22;4517;49.020;12.066;2022-10-18T04:58:52;11.30;99.90
8965;DHT22;4517;49.020;12.066;2022-10-18T05:01:18;11.30;99.90
8965;DHT22;4517;49.020;12.066;2022-10-18T05:03:43;11.30;99.90
8965;DHT22;4517;49.020;12.066;2022-10-18T05:06:09;11.30;99.90
8965;DHT22;4517;49.020;12.066;2022-10-18T05:08:35;11.30;99.90
8965;DHT22;4517;49.020;12.066;2022-10-18T05:11:01;11.40;99.90
8965;DHT22;4517;49.020;12.066;2022-10-18T05:13:28;11.40;99.90
8965;DHT22;4517;49.020;12.066;2022-10-18T05:15:53;11.40;99.90
8965;DHT22;4517;49.020;12.066;2022-10-18T05:18:19;11.40;99.90
8965;DHT22;4517;49.020;12.066;2022-10-18T05:20:45;11.50;99.90
8965;DHT22;4517;49.020;12.066;2022-10-18T05:23:11;11.50;99.90
8965;DHT22;4517;49.020;12.066;2022-10-18T05:25:40;11.50;99.90
8965;DHT22;4517;49.020;12.066;2022-10-18T05:28:06;11.50;99.90
8965;DHT22;4517;49.020;12.066;2022-10-18T05:30:32;11.60;99.90
8965;DHT22;4517;49.020;12.066;2022-10-18T05:33:01;11.60;99.90
8965;DHT22;4517;49.020;12.066;2022-10-18T05:35:26;11.60;99.90
8965;DHT22;4517;49.020;12.066;2022-10-18T05:37:52;11.60;99.90
8965;DHT22;4517;49.020;12.066;2022-10-18T05:40:17;11.60;99.90
8965;DHT22;4517;49.020;12.066;2022-10-18T05:42:43;11.60;99.90
8965;DHT22;4517;49.020;12.066;2022-10-18T05:45:08;11.70;99.90
8965;DHT22;4517;49.020;12.066;2022-10-18T05:47:34;11.70;99.90
8965;DHT22;4517;49.020;12.066;2022-10-18T05:50:00;11.70;99.90
8965;DHT22;4517;49.020;12.066;2022-10-18T05:52:25;11.70;99.90
8965;DHT22;4517;49.020;12.066;2022-10-18T05:54:51;11.70;99.90
8965;DHT22;4517;49.020;12.066;2022-10-18T05:57:16;11.70;99.90
8965;DHT22;4517;49.020;12.066;2022-10-18T05:59:42;11.70;99.90
8965;DHT22;4517;49.020;12.066;2022-10-18T06:02:10;11.80;99.90
8965;DHT22;4517;49.020;12.066;2022-10-18T06:04:35;11.80;99.90
8965;DHT22;4517;49.020;12.066;2022-10-18T06:07:01;11.70;99.90
8965;DHT22;4517;49.020;12.066;2022-10-18T06:09:26;11.80;99.90
8965;DHT22;4517;49.020;12.066;2022-10-18T06:11:53;11.90;99.90
8965;DHT22;4517;49.020;12.066;2022-10-18T06:14:18;11.90;99.90
8965;DHT22;4517;49.020;12.066;2022-10-18T06:16:44;11.90;99.90
8965;DHT22;4517;49.020;12.066;2022-10-18T06:19:09;11.90;99.90
8965;DHT22;4517;49.020;12.066;2022-10-18T06:21:35;11.90;99.90
8965;DHT22;4517;49.020;12.066;2022-10-18T06:24:00;12.00;99.90
8965;DHT22;4517;49.020;12.066;2022-10-18T06:26:26;12.10;99.90
8965;DHT22;4517;49.020;12.066;2022-10-18T06:28:52;12.10;99.90
8965;DHT22;4517;49.020;12.066;2022-10-18T06:31:17;12.10;99.90
8965;DHT22;4517;49.020;12.066;2022-10-18T06:33:44;12.00;99.90
8965;DHT22;4517;49.020;12.066;2022-10-18T06:36:15;12.10;99.90
8965;DHT22;4517;49.020;12.066;2022-10-18T06:38:41;12.00;99.90
8965;DHT22;4517;49.020;12.066;2022-10-18T06:41:07;12.00;99.90
8965;DHT22;4517;49.020;12.066;2022-10-18T06:43:33;12.00;99.90
8965;DHT22;4517;49.020;12.066;2022-10-18T06:46:01;12.00;99.90
8965;DHT22;4517;49.020;12.066;2022-10-18T06:48:28;12.00;99.90
8965;DHT22;4517;49.020;12.066;2022-10-18T06:50:58;12.00;99.90
8965;DHT22;4517;49.020;12.066;2022-10-18T06:53:29;12.00;99.90
8965;DHT22;4517;49.020;12.066;2022-10-18T06:56:06;12.00;99.90
8965;DHT22;4517;49.020;12.066;2022-10-18T06:58:33;12.10;99.90
8965;DHT22;4517;49.020;12.066;2022-10-18T07:01:07;12.10;99.90
8965;DHT22;4517;49.020;12.066;2022-10-18T07:03:33;12.10;99.90
8965;DHT22;4517;49.020;12.066;2022-10-18T07:06:00;12.20;99.90
8965;DHT22;4517;49.020;12.066;2022-10-18T07:08:27;12.30;99.90
8965;DHT22;4517;49.020;12.066;2022-10-18T07:10:53;12.40;99.90
8965;DHT22;4517;49.020;12.066;2022-10-18T07:13:19;12.40;99.90
8965;DHT22;4517;49.020;12.066;2022-10-18T07:15:45;12.40;99.90
8965;DHT22;4517;49.020;12.066;2022-10-18T07:18:11;12.50;99.90
8965;DHT22;4517;49.020;12.066;2022-10-18T07:20:36;12.40;99.90
8965;DHT22;4517;49.020;12.066;2022-10-18T07:23:02;12.50;99.90
8965;DHT22;4517;49.020;12.066;2022-10-18T07:25:27;12.60;99.90
8965;DHT22;4517;49.020;12.066;2022-10-18T07:27:53;12.60;99.90
8965;DHT22;4517;49.020;12.066;2022-10-18T07:30:19;12.60;99.90
8965;DHT22;4517;49.020;12.066;2022-10-18T07:32:44;12.60;99.90
8965;DHT22;4517;49.020;12.066;2022-10-18T07:35:10;12.60;99.90
8965;DHT22;4517;49.020;12.066;2022-10-18T07:37:36;12.60;99.90
8965;DHT22;4517;49.020;12.066;2022-10-18T07:40:01;12.70;99.90
8965;DHT22;4517;49.020;12.066;2022-10-18T07:42:27;12.70;99.90
8965;DHT22;4517;49.020;12.066;2022-10-18T07:44:52;12.80;99.90
8965;DHT22;4517;49.020;12.066;2022-10-18T07:47:18;12.80;99.90
8965;DHT22;4517;49.020;12.066;2022-10-18T07:49:43;12.70;99.90
8965;DHT22;4517;49.020;12.066;2022-10-18T07:52:09;12.70;99.90
8965;DHT22;4517;49.020;12.066;2022-10-18T07:54:35;12.80;99.90
8965;DHT22;4517;49.020;12.066;2022-10-18T07:57:03;12.90;99.90
8965;DHT22;4517;49.020;12.066;2022-10-18T07:59:28;13.00;99.90
8965;DHT22;4517;49.020;12.066;2022-10-18T08:01:54;13.10;99.90
8965;DHT22;4517;49.020;12.066;2022-10-18T08:04:20;13.20;99.90
8965;DHT22;4517;49.020;12.066;2022-10-18T08:06:45;13.10;99.90
8965;DHT22;4517;49.020;12.066;2022-10-18T08:09:11;13.10;99.90
8965;DHT22;4517;49.020;12.066;2022-10-18T08:11:37;13.10;99.90
8965;DHT22;4517;49.020;12.066;2022-10-18T08:14:03;13.30;99.90
8965;DHT22;4517;49.020;12.066;2022-10-18T08:16:29;13.40;99.90
8965;DHT22;4517;49.020;12.066;2022-10-18T08:18:58;13.40;99.90
8965;DHT22;4517;49.020;12.066;2022-10-18T08:21:24;13.40;99.90
8965;DHT22;4517;49.020;12.066;2022-10-18T08:23:50;13.60;99.90
8965;DHT22;4517;49.020;12.066;2022-10-18T08:26:18;13.70;99.90
8965;DHT22;4517;49.020;12.066;2022-10-18T08:28:44;13.60;99.90
8965;DHT22;4517;49.020;12.066;2022-10-18T08:31:15;13.60;99.90
8965;DHT22;4517;49.020;12.066;2022-10-18T08:33:45;13.60;99.90
8965;DHT22;4517;49.020;12.066;2022-10-18T08:36:14;13.70;99.90
8965;DHT22;4517;49.020;12.066;2022-10-18T08:38:41;13.70;99.90
8965;DHT22;4517;49.020;12.066;2022-10-18T08:46:28;14.10;99.90
8965;DHT22;4517;49.020;12.066;2022-10-18T08:48:55;14.20;99.90
8965;DHT22;4517;49.020;12.066;2022-10-18T08:51:32;14.20;99.90
8965;DHT22;4517;49.020;12.066;2022-10-18T08:54:06;14.10;99.90
8965;DHT22;4517;49.020;12.066;2022-10-18T08:56:34;14.20;99.90
8965;DHT22;4517;49.020;12.066;2022-10-18T08:59:01;14.40;99.90
8965;DHT22;4517;49.020;12.066;2022-10-18T09:01:38;14.50;99.90
8965;DHT22;4517;49.020;12.066;2022-10-18T09:10:05;14.80;99.90
8965;DHT22;4517;49.020;12.066;2022-10-18T09:15:48;14.80;99.90
8965;DHT22;4517;49.020;12.066;2022-10-18T09:21:27;14.60;99.90
8965;DHT22;4517;49.020;12.066;2022-10-18T09:23:58;14.60;99.90
8965;DHT22;4517;49.020;12.066;2022-10-18T09:26:25;14.50;99.90
8965;DHT22;4517;49.020;12.066;2022-10-18T09:34:23;14.80;99.90
8965;DHT22;4517;49.020;12.066;2022-10-18T09:36:51;15.00;99.90
8965;DHT22;4517;49.020;12.066;2022-10-18T09:39:30;15.40;99.90
8965;DHT22;4517;49.020;12.066;2022-10-18T09:42:02;15.60;99.90
8965;DHT22;4517;49.020;12.066;2022-10-18T09:44:37;15.80;99.90
8965;DHT22;4517;49.020;12.066;2022-10-18T09:47:32;15.80;99.90
8965;DHT22;4517;49.020;12.066;2022-10-18T09:50:02;15.90;99.90
8965;DHT22;4517;49.020;12.066;2022-10-18T09:52:46;15.80;99.90
8965;DHT22;4517;49.020;12.066;2022-10-18T09:55:22;15.60;99.90
8965;DHT22;4517;49.020;12.066;2022-10-18T09:57:52;15.50;99.90
8965;DHT22;4517;49.020;12.066;2022-10-18T10:00:30;15.90;99.90
8965;DHT22;4517;49.020;12.066;2022-10-18T10:02:58;16.10;99.90
8965;DHT22;4517;49.020;12.066;2022-10-18T10:05:24;16.40;99.90
8965;DHT22;4517;49.020;12.066;2022-10-18T10:07:57;16.60;99.90
8965;DHT22;4517;49.020;12.066;2022-10-18T10:10:25;16.90;99.90
8965;DHT22;4517;49.020;12.066;2022-10-18T10:13:16;17.00;99.90
8965;DHT22;4517;49.020;12.066;2022-10-18T10:15:55;17.50;99.90
8965;DHT22;4517;49.020;12.066;2022-10-18T10:20:50;17.10;99.90
8965;DHT22;4517;49.020;12.066;2022-10-18T10:26:21;17.20;99.90
8965;DHT22;4517;49.020;12.066;2022-10-18T10:28:47;17.30;99.90
8965;DHT22;4517;49.020;12.066;2022-10-18T10:31:30;17.30;99.90
8965;DHT22;4517;49.020;12.066;2022-10-18T10:34:00;17.10;99.90
8965;DHT22;4517;49.020;12.066;2022-10-18T10:36:26;17.10;99.90
8965;DHT22;4517;49.020;12.066;2022-10-18T10:41:28;17.30;99.90
8965;DHT22;4517;49.020;12.066;2022-10-18T10:43:54;17.10;99.90
8965;DHT22;4517;49.020;12.066;2022-10-18T10:46:20;17.00;99.90
8965;DHT22;4517;49.020;12.066;2022-10-18T10:48:55;16.60;99.90
8965;DHT22;4517;49.020;12.066;2022-10-18T10:51:36;16.50;99.90
8965;DHT22;4517;49.020;12.066;2022-10-18T10:54:15;16.60;99.90
8965;DHT22;4517;49.020;12.066;2022-10-18T10:56:59;16.50;99.90
8965;DHT22;4517;49.020;12.066;2022-10-18T10:59:27;16.60;99.90
8965;DHT22;4517;49.020;12.066;2022-10-18T11:04:45;16.60;99.90
8965;DHT22;4517;49.020;12.066;2022-10-18T11:07:29;16.60;99.90
8965;DHT22;4517;49.020;12.066;2022-10-18T11:10:14;16.70;99.90
8965;DHT22;4517;49.020;12.066;2022-10-18T11:15:35;16.80;99.90
8965;DHT22;4517;49.020;12.066;2022-10-18T11:18:26;16.80;99.90
8965;DHT22;4517;49.020;12.066;2022-10-18T11:21:07;16.70;99.90
8965;DHT22;4517;49.020;12.066;2022-10-18T11:23:41;16.70;99.90
8965;DHT22;4517;49.020;12.066;2022-10-18T11:26:12;16.80;99.90
8965;DHT22;4517;49.020;12.066;2022-10-18T11:37:36;17.10;99.90
8965;DHT22;4517;49.020;12.066;2022-10-18T11:43:27;17.20;99.90
8965;DHT22;4517;49.020;12.066;2022-10-18T11:46:10;17.30;99.90
8965;DHT22;4517;49.020;12.066;2022-10-18T11:52:15;17.40;99.90
8965;DHT22;4517;49.020;12.066;2022-10-18T11:54:42;17.60;99.90
8965;DHT22;4517;49.020;12.066;2022-10-18T11:57:37;17.80;99.90
8965;DHT22;4517;49.020;12.066;2022-10-18T12:00:12;18.00;99.90
8965;DHT22;4517;49.020;12.066;2022-10-18T12:05:14;18.20;99.90
8965;DHT22;4517;49.020;12.066;2022-10-18T12:07:46;18.40;99.90
8965;DHT22;4517;49.020;12.066;2022-10-18T12:10:19;18.60;99.90
8965;DHT22;4517;49.020;12.066;2022-10-18T12:13:06;18.70;99.90
8965;DHT22;4517;49.020;12.066;2022-10-18T12:15:35;18.60;99.90
8965;DHT22;4517;49.020;12.066;2022-10-18T12:18:11;18.60;99.90
8965;DHT22;4517;49.020;12.066;2022-10-18T12:20:41;18.80;99.90
8965;DHT22;4517;49.020;12.066;2022-10-18T12:23:15;19.00;99.90
8965;DHT22;4517;49.020;12.066;2022-10-18T12:25:55;19.20;99.90
8965;DHT22;4517;49.020;12.066;2022-10-18T12:28:50;19.50;99.90
8965;DHT22;4517;49.020;12.066;2022-10-18T12:31:44;19.70;99.90
8965;DHT22;4517;49.020;12.066;2022-10-18T12:42:31;20.20;99.90
8965;DHT22;4517;49.020;12.066;2022-10-18T12:47:53;20.50;99.90
8965;DHT22;4517;49.020;12.066;2022-10-18T12:50:34;20.60;99.90
8965;DHT22;4517;49.020;12.066;2022-10-18T12:55:31;20.70;99.90
8965;DHT22;4517;49.020;12.066;2022-10-18T13:19:28;20.40;99.90
8965;DHT22;4517;49.020;12.066;2022-10-18T13:38:47;18.90;99.90
8965;DHT22;4517;49.020;12.066;2022-10-18T13:41:32;19.00;99.90
8965;DHT22;4517;49.020;12.066;2022-10-18T13:44:31;19.00;99.90
8965;DHT22;4517;49.020;12.066;2022-10-18T13:52:36;19.00;99.90
8965;DHT22;4517;49.020;12.066;2022-10-18T13:55:38;19.00;99.90
8965;DHT22;4517;49.020;12.066;2022-10-18T13:58:47;18.80;99.90
8965;DHT22;4517;49.020;12.066;2022-10-18T14:01:55;18.90;99.90
8965;DHT22;4517;49.020;12.066;2022-10-18T14:07:10;19.00;99.90
8965;DHT22;4517;49.020;12.066;2022-10-18T14:09:47;19.20;99.90
8965;DHT22;4517;49.020;12.066;2022-10-18T14:12:51;19.40;99.90
8965;DHT22;4517;49.020;12.066;2022-10-18T14:15:46;19.60;99.90
8965;DHT22;4517;49.020;12.066;2022-10-18T14:18:31;19.70;99.90
8965;DHT22;4517;49.020;12.066;2022-10-18T14:21:06;19.60;99.90
8965;DHT22;4517;49.020;12.066;2022-10-18T14:23:35;19.40;99.90
8965;DHT22;4517;49.020;12.066;2022-10-18T14:26:16;19.40;99.90
8965;DHT22;4517;49.020;12.066;2022-10-18T14:28:42;19.40;99.90
8965;DHT22;4517;49.020;12.066;2022-10-18T14:31:17;19.40;99.90
8965;DHT22;4517;49.020;12.066;2022-10-18T14:33:54;19.30;99.90
8965;DHT22;4517;49.020;12.066;2022-10-18T14:36:22;19.10;99.90
8965;DHT22;4517;49.020;12.066;2022-10-18T14:38:54;19.10;99.90
8965;DHT22;4517;49.020;12.066;2022-10-18T14:41:22;19.00;99.90
8965;DHT22;4517;49.020;12.066;2022-10-18T14:43:48;19.00;99.90
8965;DHT22;4517;49.020;12.066;2022-10-18T14:46:39;18.80;99.90
8965;DHT22;4517;49.020;12.066;2022-10-18T14:49:06;18.80;99.90
8965;DHT22;4517;49.020;12.066;2022-10-18T14:51:35;18.80;99.90
8965;DHT22;4517;49.020;12.066;2022-10-18T14:54:01;18.70;99.90
8965;DHT22;4517;49.020;12.066;2022-10-18T14:56:32;18.90;99.90
8965;DHT22;4517;49.020;12.066;2022-10-18T14:59:04;19.00;99.90
8965;DHT22;4517;49.020;12.066;2022-10-18T15:01:34;18.90;99.90
8965;DHT22;4517;49.020;12.066;2022-10-18T15:04:07;18.80;99.90
8965;DHT22;4517;49.020;12.066;2022-10-18T15:06:34;18.80;99.90
8965;DHT22;4517;49.020;12.066;2022-10-18T15:09:02;18.80;99.90
8965;DHT22;4517;49.020;12.066;2022-10-18T15:11:31;18.70;99.90
8965;DHT22;4517;49.020;12.066;2022-10-18T15:14:03;18.80;99.90
8965;DHT22;4517;49.020;12.066;2022-10-18T15:16:33;18.90;99.90
8965;DHT22;4517;49.020;12.066;2022-10-18T15:19:18;18.90;99.90
8965;DHT22;4517;49.020;12.066;2022-10-18T15:24:39;18.90;99.90
8965;DHT22;4517;49.020;12.066;2022-10-18T15:27:13;18.90;99.90
8965;DHT22;4517;49.020;12.066;2022-10-18T15:29:39;18.90;99.90
8965;DHT22;4517;49.020;12.066;2022-10-18T15:32:23;18.80;99.90
8965;DHT22;4517;49.020;12.066;2022-10-18T15:34:50;18.70;99.90
8965;DHT22;4517;49.020;12.066;2022-10-18T15:37:26;18.60;99.90
8965;DHT22;4517;49.020;12.066;2022-10-18T15:40:17;18.60;99.90
8965;DHT22;4517;49.020;12.066;2022-10-18T15:42:44;18.40;99.90
8965;DHT22;4517;49.020;12.066;2022-10-18T15:50:42;18.20;99.90
8965;DHT22;4517;49.020;12.066;2022-10-18T15:55:51;18.10;99.90
8965;DHT22;4517;49.020;12.066;2022-10-18T15:58:24;18.10;99.90
8965;DHT22;4517;49.020;12.066;2022-10-18T16:00:52;18.00;99.90
8965;DHT22;4517;49.020;12.066;2022-10-18T16:03:18;18.00;99.90
8965;DHT22;4517;49.020;12.066;2022-10-18T16:05:47;17.90;99.90
8965;DHT22;4517;49.020;12.066;2022-10-18T16:08:24;17.80;99.90
8965;DHT22;4517;49.020;12.066;2022-10-18T16:10:51;17.70;99.90
8965;DHT22;4517;49.020;12.066;2022-10-18T16:13:17;17.70;99.90
8965;DHT22;4517;49.020;12.066;2022-10-18T16:15:42;17.50;99.90
8965;DHT22;4517;49.020;12.066;2022-10-18T16:18:17;17.60;99.90
8965;DHT22;4517;49.020;12.066;2022-10-18T16:20:43;17.50;99.90
8965;DHT22;4517;49.020;12.066;2022-10-18T16:23:18;17.60;99.90
8965;DHT22;4517;49.020;12.066;2022-10-18T16:25:45;17.40;99.90
8965;DHT22;4517;49.020;12.066;2022-10-18T16:28:17;17.40;99.90
8965;DHT22;4517;49.020;12.066;2022-10-18T16:30:49;17.30;99.90
8965;DHT22;4517;49.020;12.066;2022-10-18T16:33:16;17.20;99.90
8965;DHT22;4517;49.020;12.066;2022-10-18T16:35:42;17.30;99.90
8965;DHT22;4517;49.020;12.066;2022-10-18T16:38:18;17.10;99.90
8965;DHT22;4517;49.020;12.066;2022-10-18T16:40:44;17.10;99.90
8965;DHT22;4517;49.020;12.066;2022-10-18T16:43:10;17.00;99.90
8965;DHT22;4517;49.020;12.066;2022-10-18T16:45:35;17.00;99.90
8965;DHT22;4517;49.020;12.066;2022-10-18T16:48:01;17.00;99.90
8965;DHT22;4517;49.020;12.066;2022-10-18T16:50:27;17.10;99.90
8965;DHT22;4517;49.020;12.066;2022-10-18T16:52:52;17.00;99.90
8965;DHT22;4517;49.020;12.066;2022-10-18T16:55:18;16.90;99.90
8965;DHT22;4517;49.020;12.066;2022-10-18T16:57:49;17.00;99.90
8965;DHT22;4517;49.020;12.066;2022-10-18T17:00:19;17.10;99.90
8965;DHT22;4517;49.020;12.066;2022-10-18T17:02:47;17.00;99.90
8965;DHT22;4517;49.020;12.066;2022-10-18T17:05:14;17.10;99.90
8965;DHT22;4517;49.020;12.066;2022-10-18T17:07:40;17.10;99.90
8965;DHT22;4517;49.020;12.066;2022-10-18T17:10:06;17.00;99.90
8965;DHT22;4517;49.020;12.066;2022-10-18T17:12:32;17.00;99.90
8965;DHT22;4517;49.020;12.066;2022-10-18T17:14:57;17.00;99.90
8965;DHT22;4517;49.020;12.066;2022-10-18T17:17:23;17.10;99.90
8965;DHT22;4517;49.020;12.066;2022-10-18T17:19:49;17.10;99.90
8965;DHT22;4517;49.020;12.066;2022-10-18T17:22:14;17.00;99.90
8965;DHT22;4517;49.020;12.066;2022-10-18T17:24:40;17.00;99.90
8965;DHT22;4517;49.020;12.066;2022-10-18T17:27:05;17.00;99.90
8965;DHT22;4517;49.020;12.066;2022-10-18T17:29:31;17.00;99.90
8965;DHT22;4517;49.020;12.066;2022-10-18T17:31:56;17.00;99.90
8965;DHT22;4517;49.020;12.066;2022-10-18T17:34:22;17.00;99.90
8965;DHT22;4517;49.020;12.066;2022-10-18T17:36:47;17.00;99.90
8965;DHT22;4517;49.020;12.066;2022-10-18T17:39:13;17.00;99.90
8965;DHT22;4517;49.020;12.066;2022-10-18T17:41:38;17.00;99.90
8965;DHT22;4517;49.020;12.066;2022-10-18T17:44:05;17.00;99.90
8965;DHT22;4517;49.020;12.066;2022-10-18T17:46:30;16.90;99.90
8965;DHT22;4517;49.020;12.066;2022-10-18T17:48:56;17.00;99.90
8965;DHT22;4517;49.020;12.066;2022-10-18T17:51:22;17.00;99.90
8965;DHT22;4517;49.020;12.066;2022-10-18T17:53:47;17.00;99.90
8965;DHT22;4517;49.020;12.066;2022-10-18T17:56:14;17.00;99.90
8965;DHT22;4517;49.020;12.066;2022-10-18T17:58:40;17.00;99.90
8965;DHT22;4517;49.020;12.066;2022-10-18T18:01:15;17.00;99.90
8965;DHT22;4517;49.020;12.066;2022-10-18T18:03:41;16.90;99.90
8965;DHT22;4517;49.020;12.066;2022-10-18T18:08:37;16.80;99.90
8965;DHT22;4517;49.020;12.066;2022-10-18T18:11:02;16.80;99.90
8965;DHT22;4517;49.020;12.066;2022-10-18T18:13:28;16.80;99.90
8965;DHT22;4517;49.020;12.066;2022-10-18T18:15:53;16.70;99.90
8965;DHT22;4517;49.020;12.066;2022-10-18T18:18:19;16.70;99.90
8965;DHT22;4517;49.020;12.066;2022-10-18T18:20:51;16.60;99.90
8965;DHT22;4517;49.020;12.066;2022-10-18T18:23:16;16.70;99.90
8965;DHT22;4517;49.020;12.066;2022-10-18T18:25:42;16.60;99.90
8965;DHT22;4517;49.020;12.066;2022-10-18T18:28:08;16.70;99.90
8965;DHT22;4517;49.020;12.066;2022-10-18T18:30:33;16.60;99.90